Time;durP1;ratioP1;P1;durP2;ratioP2;P2;SDS_P1;SDS_P2;PMS_P1;PMS_P2;Temp;Humidity;BMP_temperature;BMP_pressure;BME280_temperature;BME280_humidity;BME280_pressure;Samples;Min_cycle;Max_cycle;Signal;HPM_P1;HPM_P2
2023/09/14 00:00:24;;;;;;;6.15;4.47;;;;;;;;;;5056231;28;20024;-61
2023/09/14 00:02:50;;;;;;;8.57;4.72;;;;;;;;;;5056739;28;20028;-60
2023/09/14 00:05:16;;;;;;;6.00;5.00;;;;;;;;;;5056919;28;20020;-60
2023/09/14 00:07:42;;;;;;;8.02;4.78;;;;;;;;;;5056348;28;20025;-61
2023/09/14 00:10:08;;;;;;;4.85;4.25;;;;;;;;;;5056880;28;20021;-60
2023/09/14 00:12:34;;;;;;;6.57;5.25;;;;;;;;;;5056451;28;20074;-60
2023/09/14 00:15:00;;;;;;;8.88;4.85;;;;;;;;;;5056432;28;20025;-60
2023/09/14 00:17:29;;;;;;;6.13;4.85;;;;;;;;;;5056044;28;20090;-60
2023/09/14 00:19:55;;;;;;;7.90;4.65;;;;;;;;;;5056664;28;20027;-60
2023/09/14 00:22:21;;;;;;;5.22;4.53;;;;;;;;;;5056095;28;20020;-61
2023/09/14 00:24:47;;;;;;;4.68;3.60;;;;;;;;;;5055775;28;20025;-60
2023/09/14 00:27:13;;;;;;;5.75;3.50;;;;;;;;;;5056450;28;20040;-61
2023/09/14 00:29:38;;;;;;;6.57;4.45;;;;;;;;;;5055929;28;20059;-61
2023/09/14 00:32:04;;;;;;;6.25;4.70;;;;;;;;;;5055880;28;20080;-60
2023/09/14 00:34:30;;;;;;;4.88;3.50;;;;;;;;;;5056087;28;20021;-61
2023/09/14 00:36:56;;;;;;;6.85;4.45;;;;;;;;;;5055848;28;20367;-61
2023/09/14 00:39:22;;;;;;;5.05;4.20;;;;;;;;;;5056517;28;20390;-61
2023/09/14 00:41:48;;;;;;;5.10;4.25;;;;;;;;;;5055689;28;20074;-61
2023/09/14 00:44:14;;;;;;;5.47;4.90;;;;;;;;;;5055667;28;20066;-60
2023/09/14 00:46:40;;;;;;;6.18;5.05;;;;;;;;;;5054824;28;20112;-61
2023/09/14 00:49:06;;;;;;;5.80;4.75;;;;;;;;;;5055566;28;20017;-60
2023/09/14 00:51:32;;;;;;;5.47;4.93;;;;;;;;;;5055490;28;20021;-61
2023/09/14 00:53:59;;;;;;;7.32;5.47;;;;;;;;;;5056235;28;20021;-61
2023/09/14 00:56:26;;;;;;;5.63;5.03;;;;;;;;;;5056146;28;20116;-61
2023/09/14 00:58:52;;;;;;;6.57;5.07;;;;;;;;;;5056109;28;20071;-60
2023/09/14 01:01:18;;;;;;;6.82;5.25;;;;;;;;;;5055560;28;20083;-60
2023/09/14 01:03:44;;;;;;;6.85;4.82;;;;;;;;;;5056110;28;20386;-60
2023/09/14 01:06:11;;;;;;;6.22;4.88;;;;;;;;;;5056004;28;20369;-61
2023/09/14 01:08:37;;;;;;;6.53;5.00;;;;;;;;;;5056063;28;20029;-61
2023/09/14 01:11:03;;;;;;;7.30;6.53;;;;;;;;;;5055662;28;20395;-61
2023/09/14 01:13:33;;;;;;;7.28;5.43;;;;;;;;;;5055870;28;20025;-61
2023/09/14 01:16:04;;;;;;;6.57;5.65;;;;;;;;;;5055669;28;20352;-61
2023/09/14 01:18:32;;;;;;;8.00;6.03;;;;;;;;;;5054999;28;20467;-60
2023/09/14 01:21:21;;;;;;;8.18;5.95;;;;;;;;;;5055595;28;20120;-61
2023/09/14 01:23:50;;;;;;;5.82;5.22;;;;;;;;;;5051820;28;20032;-60
2023/09/14 01:26:16;;;;;;;6.47;5.38;;;;;;;;;;5054878;28;20223;-60
2023/09/14 01:28:42;;;;;;;6.85;5.97;;;;;;;;;;5054490;28;20040;-60
2023/09/14 01:31:08;;;;;;;7.45;6.57;;;;;;;;;;5055564;28;20029;-60
2023/09/14 01:33:34;;;;;;;7.45;5.97;;;;;;;;;;5055219;28;20017;-60
2023/09/14 01:36:03;;;;;;;8.55;5.97;;;;;;;;;;5055331;28;20017;-61
2023/09/14 01:38:30;;;;;;;8.48;6.40;;;;;;;;;;5055070;28;20037;-61
2023/09/14 01:40:57;;;;;;;7.40;6.57;;;;;;;;;;5054943;28;20032;-61
2023/09/14 01:43:23;;;;;;;7.47;5.90;;;;;;;;;;5054462;28;20025;-60
2023/09/14 01:45:49;;;;;;;7.07;6.30;;;;;;;;;;5054698;28;20371;-61
2023/09/14 01:48:16;;;;;;;5.97;5.35;;;;;;;;;;5054395;28;20111;-60
2023/09/14 01:50:42;;;;;;;8.02;6.20;;;;;;;;;;5055239;28;20017;-60
2023/09/14 01:53:08;;;;;;;8.82;7.00;;;;;;;;;;5054331;28;20096;-61
2023/09/14 01:55:34;;;;;;;7.43;5.55;;;;;;;;;;5054336;28;20032;-60
2023/09/14 01:58:00;;;;;;;7.47;6.15;;;;;;;;;;5054980;28;20086;-61
2023/09/14 02:00:26;;;;;;;7.03;5.97;;;;;;;;;;5054513;28;20478;-61
2023/09/14 02:02:57;;;;;;;7.10;6.43;;;;;;;;;;5054202;28;20358;-58
2023/09/14 02:05:24;;;;;;;7.35;6.55;;;;;;;;;;5054852;28;20021;-58
2023/09/14 02:07:49;;;;;;;12.05;7.30;;;;;;;;;;5053761;28;20120;-58
2023/09/14 02:10:16;;;;;;;6.95;6.25;;;;;;;;;;5054306;28;20470;-58
2023/09/14 02:12:42;;;;;;;8.20;6.00;;;;;;;;;;5053990;28;20482;-58
2023/09/14 02:15:09;;;;;;;7.97;6.10;;;;;;;;;;5053964;28;20040;-58
2023/09/14 02:17:35;;;;;;;7.35;6.57;;;;;;;;;;5053867;28;20482;-58
2023/09/14 02:20:01;;;;;;;7.70;6.78;;;;;;;;;;5053876;28;20021;-58
2023/09/14 02:22:26;;;;;;;6.30;5.65;;;;;;;;;;5054162;28;20033;-58
2023/09/14 02:24:52;;;;;;;6.25;4.93;;;;;;;;;;5053778;28;20028;-58
2023/09/14 02:27:18;;;;;;;7.13;5.85;;;;;;;;;;5054493;28;20108;-60
2023/09/14 02:29:44;;;;;;;6.90;6.20;;;;;;;;;;5054609;28;20549;-61
2023/09/14 02:32:10;;;;;;;5.97;5.18;;;;;;;;;;5054445;28;20343;-61
2023/09/14 02:34:36;;;;;;;8.25;6.07;;;;;;;;;;5053384;28;20096;-61
2023/09/14 02:37:02;;;;;;;7.05;5.88;;;;;;;;;;5053697;28;20084;-61
2023/09/14 02:39:28;;;;;;;7.68;5.60;;;;;;;;;;5053636;28;20029;-61
2023/09/14 02:41:54;;;;;;;6.97;4.70;;;;;;;;;;5053627;28;20305;-61
2023/09/14 02:44:20;;;;;;;7.85;5.72;;;;;;;;;;5054592;28;20051;-61
2023/09/14 02:46:46;;;;;;;7.03;5.93;;;;;;;;;;5053569;28;20025;-61
2023/09/14 02:49:12;;;;;;;6.15;5.25;;;;;;;;;;5053979;28;20196;-58
2023/09/14 02:51:38;;;;;;;5.93;4.85;;;;;;;;;;5053684;28;20438;-58
2023/09/14 02:54:04;;;;;;;5.85;4.78;;;;;;;;;;5054068;28;20099;-58
2023/09/14 02:56:30;;;;;;;5.25;4.30;;;;;;;;;;5053391;28;20031;-58
2023/09/14 02:58:56;;;;;;;5.20;4.32;;;;;;;;;;5053898;28;20024;-58
2023/09/14 03:01:22;;;;;;;4.97;4.40;;;;;;;;;;5053366;28;20112;-58
2023/09/14 03:03:48;;;;;;;5.95;4.28;;;;;;;;;;5053857;28;20047;-58
2023/09/14 03:06:14;;;;;;;5.22;4.68;;;;;;;;;;5053322;28;20021;-60
2023/09/14 03:08:40;;;;;;;4.07;3.67;;;;;;;;;;5053844;28;20025;-60
2023/09/14 03:11:09;;;;;;;5.28;4.35;;;;;;;;;;5055851;28;20039;-61
2023/09/14 03:13:35;;;;;;;6.15;4.07;;;;;;;;;;5057454;28;20032;-60
2023/09/14 03:16:01;;;;;;;4.13;3.70;;;;;;;;;;5058104;28;20040;-60
2023/09/14 03:18:27;;;;;;;5.35;3.55;;;;;;;;;;5057751;28;20450;-60
2023/09/14 03:20:54;;;;;;;4.53;3.55;;;;;;;;;;5057815;28;20071;-60
2023/09/14 03:23:20;;;;;;;4.57;3.60;;;;;;;;;;5057967;28;20029;-60
2023/09/14 03:25:48;;;;;;;4.13;3.58;;;;;;;;;;5057726;28;20363;-61
2023/09/14 03:28:14;;;;;;;4.18;3.42;;;;;;;;;;5057081;28;20021;-61
2023/09/14 03:30:40;;;;;;;3.88;2.85;;;;;;;;;;5057403;28;20060;-61
2023/09/14 03:33:06;;;;;;;3.60;2.90;;;;;;;;;;5057046;28;20363;-61
2023/09/14 03:35:32;;;;;;;4.85;3.63;;;;;;;;;;5057022;28;20021;-60
2023/09/14 03:37:58;;;;;;;6.68;3.88;;;;;;;;;;5056556;28;20107;-60
2023/09/14 03:40:24;;;;;;;4.07;3.15;;;;;;;;;;5056846;28;20116;-61
2023/09/14 03:42:50;;;;;;;4.50;3.38;;;;;;;;;;5056829;28;20031;-61
2023/09/14 03:45:16;;;;;;;4.95;3.85;;;;;;;;;;5057343;28;20174;-61
2023/09/14 03:47:42;;;;;;;4.22;3.45;;;;;;;;;;5056915;28;20074;-61
2023/09/14 03:50:09;;;;;;;4.38;3.42;;;;;;;;;;5057498;28;20052;-61
2023/09/14 03:52:35;;;;;;;4.78;3.83;;;;;;;;;;5057436;28;20025;-60
2023/09/14 03:55:01;;;;;;;4.18;3.10;;;;;;;;;;5057428;28;20025;-60
2023/09/14 03:57:28;;;;;;;4.47;3.88;;;;;;;;;;5056554;28;20051;-60
2023/09/14 03:59:54;;;;;;;3.58;2.80;;;;;;;;;;5057154;28;20031;-61
2023/09/14 04:02:20;;;;;;;5.07;2.90;;;;;;;;;;5056210;28;20124;-60
2023/09/14 04:04:46;;;;;;;4.30;3.47;;;;;;;;;;5056119;28;20025;-61
2023/09/14 04:07:11;;;;;;;5.03;3.38;;;;;;;;;;5056714;28;20039;-60
2023/09/14 04:09:38;;;;;;;4.47;3.30;;;;;;;;;;5057334;28;20363;-61
2023/09/14 04:12:04;;;;;;;5.80;3.35;;;;;;;;;;5056413;28;20021;-58
2023/09/14 04:14:30;;;;;;;3.75;2.80;;;;;;;;;;5056493;28;20024;-58
2023/09/14 04:16:57;;;;;;;4.35;3.08;;;;;;;;;;5056152;28;20055;-60
2023/09/14 04:19:23;;;;;;;3.28;2.78;;;;;;;;;;5056828;28;20028;-61
2023/09/14 04:21:49;;;;;;;4.72;3.50;;;;;;;;;;5055025;28;20029;-61
2023/09/14 04:24:15;;;;;;;6.05;3.33;;;;;;;;;;5055858;28;20533;-60
2023/09/14 04:26:41;;;;;;;3.83;3.08;;;;;;;;;;5056354;28;20108;-61
2023/09/14 04:29:07;;;;;;;4.50;3.80;;;;;;;;;;5056026;28;20107;-60
2023/09/14 04:31:34;;;;;;;5.43;3.53;;;;;;;;;;5055923;28;20033;-61
2023/09/14 04:34:00;;;;;;;4.25;3.15;;;;;;;;;;5055962;28;20025;-61
2023/09/14 04:36:26;;;;;;;3.97;3.10;;;;;;;;;;5055894;28;20041;-60
2023/09/14 04:38:52;;;;;;;4.22;3.65;;;;;;;;;;5056348;28;20041;-61
2023/09/14 04:41:18;;;;;;;6.28;3.03;;;;;;;;;;5056391;28;20383;-61
2023/09/14 04:43:44;;;;;;;4.20;3.17;;;;;;;;;;5055729;28;20024;-61
2023/09/14 04:46:10;;;;;;;4.93;3.63;;;;;;;;;;5056020;28;20096;-61
2023/09/14 04:48:41;;;;;;;3.42;2.95;;;;;;;;;;5055667;28;20104;-61
2023/09/14 04:51:07;;;;;;;5.03;3.30;;;;;;;;;;5055926;28;20017;-58
2023/09/14 04:53:33;;;;;;;4.88;3.33;;;;;;;;;;5055670;28;20379;-60
2023/09/14 04:55:59;;;;;;;3.92;3.28;;;;;;;;;;5056054;28;20047;-61
2023/09/14 04:58:25;;;;;;;6.35;2.47;;;;;;;;;;5055959;28;20021;-60
2023/09/14 05:00:51;;;;;;;5.57;3.40;;;;;;;;;;5056019;28;20029;-61
2023/09/14 05:03:18;;;;;;;4.10;3.60;;;;;;;;;;5055522;28;20124;-58
2023/09/14 05:05:44;;;;;;;3.72;2.88;;;;;;;;;;5055297;28;20021;-58
2023/09/14 05:08:10;;;;;;;4.90;2.63;;;;;;;;;;5055588;28;20029;-58
2023/09/14 05:10:36;;;;;;;4.63;3.25;;;;;;;;;;5055352;28;20171;-58
2023/09/14 05:13:02;;;;;;;5.97;3.58;;;;;;;;;;5055184;28;20040;-58
2023/09/14 05:15:28;;;;;;;4.28;3.22;;;;;;;;;;5055114;28;20046;-60
2023/09/14 05:17:54;;;;;;;4.28;3.38;;;;;;;;;;5054952;28;20512;-60
2023/09/14 05:20:21;;;;;;;4.80;3.95;;;;;;;;;;5054778;28;20467;-60
2023/09/14 05:22:47;;;;;;;4.55;3.58;;;;;;;;;;5054905;28;20040;-60
2023/09/14 05:25:14;;;;;;;6.40;4.13;;;;;;;;;;5055485;28;20095;-61
2023/09/14 05:27:41;;;;;;;4.93;3.55;;;;;;;;;;5054884;28;20142;-61
2023/09/14 05:30:11;;;;;;;5.45;4.10;;;;;;;;;;5055529;28;20079;-61
2023/09/14 05:32:37;;;;;;;4.65;4.07;;;;;;;;;;5055430;28;20018;-60
2023/09/14 05:35:06;;;;;;;3.75;3.35;;;;;;;;;;5055418;28;20465;-61
2023/09/14 05:37:32;;;;;;;4.90;4.00;;;;;;;;;;5054355;28;20494;-60
2023/09/14 05:39:58;;;;;;;5.22;4.22;;;;;;;;;;5055017;28;20111;-61
2023/09/14 05:42:24;;;;;;;6.38;3.30;;;;;;;;;;5054917;28;20057;-58
2023/09/14 05:44:51;;;;;;;4.05;3.60;;;;;;;;;;5054683;28;20013;-58
2023/09/14 05:47:17;;;;;;;5.43;4.47;;;;;;;;;;5054605;28;20032;-60
2023/09/14 05:49:45;;;;;;;6.70;4.32;;;;;;;;;;5055012;28;20029;-60
2023/09/14 05:52:11;;;;;;;5.65;4.45;;;;;;;;;;5055174;28;20083;-61
2023/09/14 05:54:37;;;;;;;6.57;4.05;;;;;;;;;;5054716;28;20148;-60
2023/09/14 05:57:04;;;;;;;5.53;4.35;;;;;;;;;;5054195;28;20418;-60
2023/09/14 05:59:29;;;;;;;5.32;4.43;;;;;;;;;;5054824;28;20029;-60
2023/09/14 06:01:55;;;;;;;5.60;4.45;;;;;;;;;;5054230;28;20082;-61
2023/09/14 06:04:21;;;;;;;5.60;5.00;;;;;;;;;;5053938;28;20076;-61
2023/09/14 06:06:47;;;;;;;5.22;4.68;;;;;;;;;;5054724;28;20033;-60
2023/09/14 06:09:14;;;;;;;5.15;4.20;;;;;;;;;;5054378;28;20543;-58
2023/09/14 06:11:41;;;;;;;4.85;4.35;;;;;;;;;;5054631;28;20029;-58
2023/09/14 06:14:07;;;;;;;5.80;4.78;;;;;;;;;;5054901;28;20039;-58
2023/09/14 06:16:33;;;;;;;5.95;4.97;;;;;;;;;;5054258;28;20013;-58
2023/09/14 06:18:59;;;;;;;4.65;3.97;;;;;;;;;;5054003;28;20055;-58
2023/09/14 06:21:25;;;;;;;5.97;4.95;;;;;;;;;;5054539;28;20444;-58
2023/09/14 06:23:51;;;;;;;6.60;5.70;;;;;;;;;;5053827;28;20060;-60
2023/09/14 06:26:17;;;;;;;5.95;4.28;;;;;;;;;;5054014;28;20029;-60
2023/09/14 06:28:43;;;;;;;7.78;5.25;;;;;;;;;;5053912;28;20033;-61
2023/09/14 06:31:09;;;;;;;7.57;5.57;;;;;;;;;;5054299;28;20056;-60
2023/09/14 06:33:35;;;;;;;7.70;5.35;;;;;;;;;;5053591;28;20021;-60
2023/09/14 06:36:01;;;;;;;7.82;6.90;;;;;;;;;;5053824;28;20063;-61
2023/09/14 06:38:27;;;;;;;7.50;6.70;;;;;;;;;;5054306;28;20037;-60
2023/09/14 06:40:53;;;;;;;9.50;7.18;;;;;;;;;;5054064;28;20033;-60
2023/09/14 06:43:19;;;;;;;6.90;5.80;;;;;;;;;;5053619;28;20021;-61
2023/09/14 06:45:45;;;;;;;8.90;6.05;;;;;;;;;;5053277;28;20051;-60
2023/09/14 06:48:11;;;;;;;6.18;5.53;;;;;;;;;;5053528;28;20057;-60
2023/09/14 06:50:37;;;;;;;7.13;5.55;;;;;;;;;;5053618;28;20079;-61
2023/09/14 06:53:03;;;;;;;6.25;5.60;;;;;;;;;;5053843;28;20470;-60
2023/09/14 06:55:29;;;;;;;7.55;4.47;;;;;;;;;;5053172;28;20056;-61
2023/09/14 06:57:55;;;;;;;7.07;5.60;;;;;;;;;;5053452;28;20079;-60
2023/09/14 07:00:21;;;;;;;6.88;6.25;;;;;;;;;;5054007;28;20055;-60
2023/09/14 07:02:52;;;;;;;6.05;5.35;;;;;;;;;;5053105;28;20414;-60
2023/09/14 07:05:18;;;;;;;6.03;5.43;;;;;;;;;;5054231;28;20039;-60
2023/09/14 07:07:44;;;;;;;11.20;6.28;;;;;;;;;;5053556;28;20025;-60
2023/09/14 07:10:10;;;;;;;8.68;5.75;;;;;;;;;;5053705;28;20033;-60
2023/09/14 07:12:36;;;;;;;6.45;5.85;;;;;;;;;;5053468;28;20528;-60
2023/09/14 07:15:03;;;;;;;7.47;6.03;;;;;;;;;;5053290;28;20021;-60
2023/09/14 07:17:29;;;;;;;6.53;5.55;;;;;;;;;;5053302;28;20033;-61
2023/09/14 07:19:55;;;;;;;5.35;4.82;;;;;;;;;;5053853;28;20052;-60
2023/09/14 07:22:21;;;;;;;5.25;4.70;;;;;;;;;;5053859;28;20017;-58
2023/09/14 07:24:47;;;;;;;5.72;5.18;;;;;;;;;;5053795;28;20032;-60
2023/09/14 07:27:16;;;;;;;6.45;5.63;;;;;;;;;;5053243;28;20033;-59
2023/09/14 07:29:42;;;;;;;6.97;6.13;;;;;;;;;;5054022;28;20025;-60
2023/09/14 07:32:09;;;;;;;6.57;5.22;;;;;;;;;;5053158;28;20493;-59
2023/09/14 07:34:35;;;;;;;7.82;6.32;;;;;;;;;;5053132;28;20530;-59
2023/09/14 07:37:01;;;;;;;6.35;5.45;;;;;;;;;;5053007;28;20044;-59
2023/09/14 07:39:27;;;;;;;6.03;4.97;;;;;;;;;;5053084;28;20127;-60
2023/09/14 07:41:55;;;;;;;9.50;5.72;;;;;;;;;;5053578;28;20400;-60
2023/09/14 07:44:21;;;;;;;7.15;5.88;;;;;;;;;;5052969;28;20071;-59
2023/09/14 07:46:47;;;;;;;7.00;5.53;;;;;;;;;;5052964;28;20025;-60
2023/09/14 07:49:13;;;;;;;7.47;5.65;;;;;;;;;;5053363;28;20021;-60
2023/09/14 07:51:39;;;;;;;6.28;5.10;;;;;;;;;;5053428;28;20486;-59
2023/09/14 07:54:05;;;;;;;7.80;4.90;;;;;;;;;;5052879;28;20017;-59
2023/09/14 07:56:31;;;;;;;5.80;5.20;;;;;;;;;;5054692;28;20033;-60
2023/09/14 07:58:57;;;;;;;5.53;4.93;;;;;;;;;;5056527;28;20029;-59
2023/09/14 08:01:23;;;;;;;7.78;6.85;;;;;;;;;;5056609;28;20116;-59
2023/09/14 08:03:49;;;;;;;7.80;5.32;;;;;;;;;;5056575;28;20460;-59
2023/09/14 08:06:18;;;;;;;7.22;6.53;;;;;;;;;;5056990;28;20357;-59
2023/09/14 08:08:44;;;;;;;6.93;5.07;;;;;;;;;;5056972;28;20037;-59
2023/09/14 08:11:11;;;;;;;6.32;5.68;;;;;;;;;;5056987;28;20459;-59
2023/09/14 08:13:37;;;;;;;6.63;5.45;;;;;;;;;;5056893;28;20444;-60
2023/09/14 08:16:04;;;;;;;7.13;6.05;;;;;;;;;;5056692;28;20104;-59
2023/09/14 08:18:30;;;;;;;7.63;5.80;;;;;;;;;;5056486;28;20029;-60
2023/09/14 08:20:56;;;;;;;8.40;6.65;;;;;;;;;;5056844;28;20021;-59
2023/09/14 08:23:21;;;;;;;6.80;5.80;;;;;;;;;;5056121;28;20025;-59
2023/09/14 08:25:48;;;;;;;5.93;4.97;;;;;;;;;;5056708;28;20025;-60
2023/09/14 08:28:14;;;;;;;8.00;5.35;;;;;;;;;;5056192;28;20041;-59
2023/09/14 08:30:41;;;;;;;8.18;6.25;;;;;;;;;;5056922;28;20113;-59
2023/09/14 08:33:07;;;;;;;6.55;5.95;;;;;;;;;;5055727;28;20078;-60
2023/09/14 08:35:34;;;;;;;7.07;6.25;;;;;;;;;;5056449;28;20071;-59
2023/09/14 08:38:03;;;;;;;5.78;5.10;;;;;;;;;;5056336;28;20060;-60
2023/09/14 08:40:30;;;;;;;6.40;5.20;;;;;;;;;;5056082;28;20405;-60
2023/09/14 08:42:56;;;;;;;7.97;6.05;;;;;;;;;;5056114;28;20025;-59
2023/09/14 08:45:32;;;;;;;7.10;6.07;;;;;;;;;;5055741;28;20115;-59
2023/09/14 08:48:00;;;;;;;5.43;4.90;;;;;;;;;;5056288;28;20028;-59
2023/09/14 08:50:27;;;;;;;8.23;6.30;;;;;;;;;;5055826;28;20055;-60
2023/09/14 08:52:53;;;;;;;6.13;5.38;;;;;;;;;;5055762;28;20025;-59
2023/09/14 08:55:20;;;;;;;7.60;5.70;;;;;;;;;;5055514;28;20025;-60
2023/09/14 08:57:46;;;;;;;6.90;5.97;;;;;;;;;;5055433;28;20029;-58
2023/09/14 09:00:17;;;;;;;7.07;5.53;;;;;;;;;;5056033;28;20363;-59
2023/09/14 09:02:43;;;;;;;;;;;;;;;;;;5056338;28;20371;-59
2023/09/14 09:05:10;;;;;;;7.75;5.85;;;;;;;;;;5055648;28;20007;-59
2023/09/14 09:07:36;;;;;;;6.88;5.93;;;;;;;;;;5054738;28;20036;-59
2023/09/14 09:10:03;;;;;;;7.40;5.30;;;;;;;;;;5055324;28;20025;-59
2023/09/14 09:12:29;;;;;;;6.45;5.57;;;;;;;;;;5055213;28;20400;-59
2023/09/14 09:14:55;;;;;;;7.80;5.45;;;;;;;;;;5055159;28;20031;-59
2023/09/14 09:17:21;;;;;;;5.53;4.95;;;;;;;;;;5055559;28;20033;-59
2023/09/14 09:19:47;;;;;;;6.88;6.20;;;;;;;;;;5055092;28;20056;-59
2023/09/14 09:22:17;;;;;;;8.45;5.97;;;;;;;;;;5055400;28;20025;-59
2023/09/14 09:24:43;;;;;;;7.25;6.55;;;;;;;;;;5055017;28;20024;-59
2023/09/14 09:27:28;;;;;;;6.75;5.40;;;;;;;;;;5054850;28;20459;-59
2023/09/14 09:30:00;;;;;;;8.35;5.38;;;;;;;;;;5055428;28;20035;-59
2023/09/14 09:32:26;;;;;;;7.47;6.18;;;;;;;;;;5054714;28;20507;-59
2023/09/14 09:34:52;;;;;;;6.45;5.85;;;;;;;;;;5054911;28;20064;-59
2023/09/14 09:37:18;;;;;;;6.82;5.90;;;;;;;;;;5054906;28;20123;-59
2023/09/14 09:39:44;;;;;;;6.70;5.20;;;;;;;;;;5055214;28;20083;-59
2023/09/14 09:42:12;;;;;;;9.98;6.22;;;;;;;;;;5054613;28;20029;-59
2023/09/14 09:44:39;;;;;;;7.10;5.97;;;;;;;;;;5054414;28;20021;-59
2023/09/14 09:47:05;;;;;;;7.38;6.38;;;;;;;;;;5054212;28;20029;-59
2023/09/14 09:49:32;;;;;;;6.10;5.43;;;;;;;;;;5054563;28;20108;-59
2023/09/14 09:51:58;;;;;;;6.10;5.20;;;;;;;;;;5054904;28;20025;-59
2023/09/14 09:54:24;;;;;;;6.75;5.30;;;;;;;;;;5054798;28;20052;-59
2023/09/14 09:56:51;;;;;;;8.85;6.00;;;;;;;;;;5054287;28;20060;-59
2023/09/14 09:59:17;;;;;;;6.35;5.75;;;;;;;;;;5054299;28;20039;-59
2023/09/14 10:01:47;;;;;;;6.55;5.47;;;;;;;;;;5054290;28;20028;-59
2023/09/14 10:04:14;;;;;;;7.40;5.75;;;;;;;;;;5053979;28;20025;-59
2023/09/14 10:06:41;;;;;;;6.28;5.28;;;;;;;;;;5054721;28;20025;-59
2023/09/14 10:09:11;;;;;;;5.82;5.13;;;;;;;;;;5054774;28;20021;-59
2023/09/14 10:11:38;;;;;;;10.68;5.88;;;;;;;;;;5053866;28;20170;-59
2023/09/14 10:14:04;;;;;;;8.63;6.07;;;;;;;;;;5054457;28;20036;-59
2023/09/14 10:16:34;;;;;;;6.25;5.57;;;;;;;;;;5053798;28;20025;-59
2023/09/14 10:19:02;;;;;;;6.10;5.50;;;;;;;;;;5053711;28;20064;-59
2023/09/14 10:21:28;;;;;;;6.00;5.00;;;;;;;;;;5053854;28;20121;-59
2023/09/14 10:23:56;;;;;;;9.80;5.85;;;;;;;;;;5053951;28;20017;-59
2023/09/14 10:26:22;;;;;;;13.13;4.47;;;;;;;;;;5053906;28;20036;-59
2023/09/14 10:28:49;;;;;;;7.97;4.88;;;;;;;;;;5054291;28;20029;-59
2023/09/14 10:31:16;;;;;;;6.80;6.05;;;;;;;;;;5053073;28;20112;-59
2023/09/14 10:33:45;;;;;;;5.85;4.78;;;;;;;;;;5053933;28;20024;-59
2023/09/14 10:36:12;;;;;;;7.45;5.60;;;;;;;;;;5054186;28;20404;-59
2023/09/14 10:38:43;;;;;;;6.28;5.03;;;;;;;;;;5054311;28;20033;-59
2023/09/14 10:41:09;;;;;;;6.18;5.35;;;;;;;;;;5054262;28;20065;-59
2023/09/14 10:43:35;;;;;;;5.28;4.55;;;;;;;;;;5053969;28;20099;-59
2023/09/14 10:46:02;;;;;;;5.30;4.68;;;;;;;;;;5053579;28;20062;-59
2023/09/14 10:48:29;;;;;;;7.07;4.90;;;;;;;;;;5053356;28;20028;-59
2023/09/14 10:50:58;;;;;;;4.68;4.20;;;;;;;;;;5054062;28;20021;-59
2023/09/14 10:53:24;;;;;;;5.13;4.63;;;;;;;;;;5053967;28;20028;-59
2023/09/14 10:55:50;;;;;;;6.18;5.13;;;;;;;;;;5053773;28;20036;-59
2023/09/14 10:58:16;;;;;;;5.35;4.18;;;;;;;;;;5053848;28;20029;-59
2023/09/14 11:00:42;;;;;;;6.45;3.78;;;;;;;;;;5053415;28;20520;-59
2023/09/14 11:03:09;;;;;;;5.72;4.10;;;;;;;;;;5053354;28;20027;-59
2023/09/14 11:05:42;;;;;;;5.47;4.07;;;;;;;;;;5054181;28;20025;-59
2023/09/14 11:08:09;;;;;;;6.85;4.63;;;;;;;;;;5053647;28;20350;-59
2023/09/14 11:10:37;;;;;;;5.10;4.18;;;;;;;;;;5053947;28;20021;-59
2023/09/14 11:13:24;;;;;;;6.70;4.82;;;;;;;;;;5053857;28;20029;-59
2023/09/14 11:15:56;;;;;;;5.15;4.47;;;;;;;;;;5053256;28;20431;-59
2023/09/14 11:18:35;;;;;;;4.43;3.80;;;;;;;;;;5053729;28;20044;-59
2023/09/14 11:21:01;;;;;;;6.10;3.95;;;;;;;;;;5054100;28;20021;-59
2023/09/14 11:23:35;;;;;;;4.60;3.53;;;;;;;;;;5053771;28;20083;-59
2023/09/14 11:26:02;;;;;;;6.13;4.43;;;;;;;;;;5053407;28;20104;-59
2023/09/14 11:28:33;;;;;;;4.53;4.13;;;;;;;;;;5053664;28;20107;-59
2023/09/14 11:30:59;;;;;;;4.45;4.05;;;;;;;;;;5054340;28;20052;-59
2023/09/14 11:33:25;;;;;;;5.88;3.63;;;;;;;;;;5057075;28;20074;-59
2023/09/14 11:35:52;;;;;;;4.28;3.45;;;;;;;;;;5057213;28;20402;-59
2023/09/14 11:38:23;;;;;;;4.72;3.45;;;;;;;;;;5057609;28;20041;-59
2023/09/14 11:40:49;;;;;;;7.18;4.20;;;;;;;;;;5057051;28;20063;-59
2023/09/14 11:43:24;;;;;;;5.40;4.55;;;;;;;;;;5056843;28;20056;-59
2023/09/14 11:45:56;;;;;;;6.07;3.15;;;;;;;;;;5057350;28;20028;-59
2023/09/14 11:48:25;;;;;;;5.50;3.92;;;;;;;;;;5056664;28;20021;-59
2023/09/14 11:50:52;;;;;;;5.90;3.60;;;;;;;;;;5056911;28;20017;-59
2023/09/14 11:53:19;;;;;;;6.88;3.67;;;;;;;;;;5056481;28;20056;-59
2023/09/14 11:55:49;;;;;;;3.83;3.10;;;;;;;;;;5056823;28;20032;-59
2023/09/14 11:58:15;;;;;;;3.85;3.28;;;;;;;;;;5056371;28;20041;-59
2023/09/14 12:00:42;;;;;;;3.20;2.75;;;;;;;;;;5056406;28;20467;-59
2023/09/14 12:03:09;;;;;;;4.47;3.97;;;;;;;;;;5057107;28;20017;-59
2023/09/14 12:05:35;;;;;;;4.15;3.00;;;;;;;;;;5056250;28;20375;-59
2023/09/14 12:08:08;;;;;;;5.05;2.95;;;;;;;;;;5056466;28;20028;-59
2023/09/14 12:10:34;;;;;;;2.88;2.20;;;;;;;;;;5056440;28;20021;-59
2023/09/14 12:13:09;;;;;;;3.58;3.00;;;;;;;;;;5056994;28;20044;-59
2023/09/14 12:15:35;;;;;;;4.80;2.60;;;;;;;;;;5056325;28;20036;-59
2023/09/14 12:18:01;;;;;;;4.93;3.20;;;;;;;;;;5057026;28;20033;-59
2023/09/14 12:20:27;;;;;;;5.65;3.78;;;;;;;;;;5056756;28;20521;-59
2023/09/14 12:22:53;;;;;;;4.68;3.28;;;;;;;;;;5056220;28;20443;-59
2023/09/14 12:25:19;;;;;;;3.80;2.80;;;;;;;;;;5056728;28;20025;-59
2023/09/14 12:27:45;;;;;;;3.78;2.75;;;;;;;;;;5056055;28;20348;-59
2023/09/14 12:30:11;;;;;;;3.50;3.08;;;;;;;;;;5056717;28;20112;-59
2023/09/14 12:32:38;;;;;;;4.38;3.28;;;;;;;;;;5056079;28;20029;-59
2023/09/14 12:35:05;;;;;;;3.80;2.78;;;;;;;;;;5056434;28;20421;-59
2023/09/14 12:37:31;;;;;;;3.88;2.78;;;;;;;;;;5056109;28;20045;-59
2023/09/14 12:39:57;;;;;;;5.43;2.67;;;;;;;;;;5056418;28;20076;-59
2023/09/14 12:42:24;;;;;;;3.80;3.17;;;;;;;;;;5055202;28;20059;-59
2023/09/14 12:44:51;;;;;;;3.78;2.72;;;;;;;;;;5055418;28;20029;-59
2023/09/14 12:47:17;;;;;;;7.50;2.80;;;;;;;;;;5055593;28;20116;-59
2023/09/14 12:49:43;;;;;;;3.75;2.35;;;;;;;;;;5055698;28;20067;-59
2023/09/14 12:52:10;;;;;;;6.35;3.17;;;;;;;;;;5055636;28;20355;-59
2023/09/14 12:54:39;;;;;;;4.28;2.88;;;;;;;;;;5056228;28;20028;-59
2023/09/14 12:57:14;;;;;;;5.63;3.00;;;;;;;;;;5055864;28;20451;-59
2023/09/14 12:59:59;;;;;;;2.83;2.08;;;;;;;;;;5056113;28;20370;-59
2023/09/14 13:02:25;;;;;;;3.63;2.40;;;;;;;;;;5055512;28;20025;-59
2023/09/14 13:04:51;;;;;;;4.70;2.47;;;;;;;;;;5055456;28;20104;-59
2023/09/14 13:07:17;;;;;;;5.22;2.63;;;;;;;;;;5055876;28;20501;-59
2023/09/14 13:09:44;;;;;;;3.00;1.75;;;;;;;;;;5055957;28;20456;-59
2023/09/14 13:12:10;;;;;;;3.30;2.13;;;;;;;;;;5056048;28;20070;-59
2023/09/14 13:14:37;;;;;;;4.15;1.80;;;;;;;;;;5054942;28;20023;-59
2023/09/14 13:17:03;;;;;;;2.13;1.30;;;;;;;;;;5054907;28;20033;-59
2023/09/14 13:19:29;;;;;;;2.63;1.90;;;;;;;;;;5055513;28;20471;-59
2023/09/14 13:22:07;;;;;;;3.42;2.13;;;;;;;;;;5054787;28;20060;-59
2023/09/14 13:24:33;;;;;;;2.50;1.73;;;;;;;;;;5055809;28;20112;-59
2023/09/14 13:26:59;;;;;;;3.00;2.38;;;;;;;;;;5055045;28;20113;-59
2023/09/14 13:29:25;;;;;;;4.05;2.60;;;;;;;;;;5055257;28;20029;-59
2023/09/14 13:31:51;;;;;;;2.20;1.70;;;;;;;;;;5055747;28;20044;-59
2023/09/14 13:34:17;;;;;;;5.93;2.95;;;;;;;;;;5054869;28;20036;-59
2023/09/14 13:36:42;;;;;;;2.88;2.10;;;;;;;;;;5054711;28;20045;-59
2023/09/14 13:39:09;;;;;;;3.40;2.58;;;;;;;;;;5054772;28;20033;-59
2023/09/14 13:41:35;;;;;;;2.97;2.08;;;;;;;;;;5055301;28;20055;-59
2023/09/14 13:44:02;;;;;;;4.18;3.13;;;;;;;;;;5054981;28;20020;-58
2023/09/14 13:46:28;;;;;;;4.97;2.55;;;;;;;;;;5055137;28;20394;-60
2023/09/14 13:48:57;;;;;;;4.10;2.22;;;;;;;;;;5054690;28;20029;-59
2023/09/14 13:51:23;;;;;;;2.63;1.95;;;;;;;;;;5054985;28;20549;-59
2023/09/14 13:53:50;;;;;;;2.90;1.90;;;;;;;;;;5053853;28;20029;-59
2023/09/14 13:56:15;;;;;;;2.67;2.00;;;;;;;;;;5054755;28;20017;-59
2023/09/14 13:58:41;;;;;;;4.72;2.40;;;;;;;;;;5054826;28;20036;-58
2023/09/14 14:01:07;;;;;;;3.03;1.80;;;;;;;;;;5054819;28;20017;-59
2023/09/14 14:03:33;;;;;;;3.88;1.80;;;;;;;;;;5054715;28;20362;-59
2023/09/14 14:05:59;;;;;;;2.70;1.98;;;;;;;;;;5054861;28;20473;-59
2023/09/14 14:08:27;;;;;;;3.15;2.33;;;;;;;;;;5053978;28;20428;-59
2023/09/14 14:10:53;;;;;;;3.25;2.10;;;;;;;;;;5054977;28;20051;-59
2023/09/14 14:13:19;;;;;;;2.65;1.80;;;;;;;;;;5054646;28;20060;-59
2023/09/14 14:15:45;;;;;;;4.00;2.28;;;;;;;;;;5054048;28;20055;-59
2023/09/14 14:18:11;;;;;;;3.42;2.33;;;;;;;;;;5054509;28;20040;-59
2023/09/14 14:20:38;;;;;;;4.93;2.22;;;;;;;;;;5053845;28;20036;-59
2023/09/14 14:23:04;;;;;;;5.07;2.25;;;;;;;;;;5053868;28;20528;-59
2023/09/14 14:25:29;;;;;;;3.83;2.85;;;;;;;;;;5053986;28;20025;-59
2023/09/14 14:27:55;;;;;;;4.68;2.42;;;;;;;;;;5053900;28;20021;-59
2023/09/14 14:30:21;;;;;;;2.88;2.53;;;;;;;;;;5053978;28;20102;-59
2023/09/14 14:32:47;;;;;;;4.38;2.03;;;;;;;;;;5053813;28;20028;-59
2023/09/14 14:35:14;;;;;;;7.30;2.38;;;;;;;;;;5054146;28;20336;-59
2023/09/14 14:37:40;;;;;;;3.15;1.88;;;;;;;;;;5053831;28;20118;-59
2023/09/14 14:40:06;;;;;;;2.63;1.67;;;;;;;;;;5054399;28;20443;-59